createdAt,value
2022-09-23T00:01:32.876Z,96722.19
2022-09-23T00:04:33.490Z,96882.44
2022-09-23T00:07:04.501Z,96880.47
2022-09-23T00:09:33.019Z,96897.94
2022-09-23T00:12:04.628Z,96822.69
2022-09-23T00:14:38.119Z,96867.75
2022-09-23T00:17:06.980Z,96894.38
2022-09-23T00:19:35.256Z,96858.03
2022-09-23T00:22:03.438Z,96867.19
2022-09-23T00:24:32.473Z,96898.88
2022-09-23T00:27:00.756Z,96870.41
2022-09-23T00:29:29.335Z,96903.59
2022-09-23T00:31:59.022Z,96866.66
2022-09-23T00:34:27.286Z,96913.31
2022-09-23T00:36:56.873Z,96904.75
2022-09-23T00:39:26.138Z,96879.84
2022-09-23T00:41:55.210Z,96746.16
2022-09-23T00:44:51.593Z,96850.44
2022-09-23T00:47:24.934Z,96833.66
2022-09-23T00:50:02.043Z,96871.66
2022-09-23T00:52:32.518Z,96763.81
2022-09-23T00:55:04.809Z,96863.25
2022-09-23T00:57:35.011Z,96859.50
2022-09-23T01:00:04.920Z,96862.41
2022-09-23T01:02:34.691Z,96886.72
2022-09-23T01:05:05.666Z,96845.16
2022-09-23T01:07:35.602Z,96841.03
2022-09-23T01:10:10.805Z,96837.00
2022-09-23T01:13:09.558Z,96847.22
2022-09-23T01:15:47.068Z,96854.09
2022-09-23T01:18:29.861Z,96853.97
2022-09-23T01:21:10.117Z,96840.00
2022-09-23T01:24:39.675Z,96821.09
2022-09-23T01:27:18.192Z,96844.72
2022-09-23T01:30:17.397Z,96836.34
2022-09-23T01:33:06.072Z,96842.13
2022-09-23T01:36:03.815Z,96810.78
2022-09-23T01:38:41.839Z,96786.34
2022-09-23T01:41:25.858Z,96791.31
2022-09-23T01:44:04.941Z,96790.41
2022-09-23T01:46:38.901Z,96801.13
2022-09-23T01:49:17.380Z,96837.72
2022-09-23T01:51:50.631Z,96717.44
2022-09-23T01:54:23.767Z,96820.53
2022-09-23T01:56:56.970Z,96829.03
2022-09-23T01:59:31.520Z,96796.59
2022-09-23T02:02:05.601Z,96769.66
2022-09-23T02:04:43.174Z,96805.38
2022-09-23T02:07:23.502Z,96831.72
2022-09-23T02:09:58.717Z,96851.03
2022-09-23T02:12:30.988Z,96783.72
2022-09-23T02:15:06.412Z,96791.63
2022-09-23T02:17:43.605Z,96836.31
2022-09-23T02:20:15.899Z,96819.94
2022-09-23T02:22:52.244Z,96761.75
2022-09-23T02:25:24.133Z,96831.97
2022-09-23T02:28:01.753Z,96834.44
2022-09-23T02:30:36.099Z,96819.09
2022-09-23T02:33:07.846Z,96816.13
2022-09-23T02:35:48.911Z,96832.25
2022-09-23T02:38:25.909Z,96789.09
2022-09-23T02:41:00.037Z,96803.63
2022-09-23T02:43:35.437Z,96853.34
2022-09-23T02:46:06.044Z,96791.44
2022-09-23T02:48:40.664Z,96742.78
2022-09-23T02:51:11.336Z,96698.00
2022-09-23T02:53:40.106Z,96869.47
2022-09-23T02:56:16.250Z,96810.84
2022-09-23T02:58:46.925Z,96829.09
2022-09-23T03:01:24.590Z,96806.97
2022-09-23T03:04:05.656Z,96816.81
2022-09-23T03:06:48.576Z,96823.66
2022-09-23T03:09:25.781Z,96802.56
2022-09-23T03:12:08.108Z,96778.88
2022-09-23T03:14:46.324Z,96812.41
2022-09-23T03:17:21.774Z,96685.69
2022-09-23T03:19:57.740Z,96811.16
2022-09-23T03:22:33.258Z,96757.00
2022-09-23T03:25:07.143Z,96784.75
2022-09-23T03:27:37.675Z,96801.25
2022-09-23T03:30:09.029Z,96771.50
2022-09-23T03:32:39.327Z,96774.88
2022-09-23T03:35:08.920Z,96790.31
2022-09-23T03:37:45.696Z,96807.75
2022-09-23T03:40:19.321Z,96720.06
2022-09-23T03:42:48.861Z,96785.53
2022-09-23T03:45:21.519Z,96747.81
2022-09-23T03:47:49.834Z,96808.03
2022-09-23T03:50:18.292Z,96819.13
2022-09-23T03:52:49.647Z,96794.78
2022-09-23T03:55:19.212Z,96786.97
2022-09-23T03:57:48.614Z,96808.66
2022-09-23T04:00:17.706Z,96793.41
2022-09-23T04:02:46.034Z,96770.50
2022-09-23T04:05:39.401Z,96754.31
2022-09-23T04:08:12.504Z,96761.41
2022-09-23T04:11:05.991Z,96775.50
2022-09-23T04:13:35.499Z,96808.34
2022-09-23T04:16:04.037Z,96757.63
2022-09-23T04:18:32.349Z,96699.84
2022-09-23T04:21:00.970Z,96824.94
2022-09-23T04:23:30.867Z,96756.00
2022-09-23T04:25:59.064Z,96780.41
2022-09-23T04:28:27.344Z,96728.28
2022-09-23T04:30:57.775Z,96743.69
2022-09-23T04:33:26.476Z,96766.69
2022-09-23T04:35:56.592Z,96730.44
2022-09-23T04:38:25.255Z,96762.53
2022-09-23T04:40:57.443Z,96755.22
2022-09-23T04:43:25.766Z,96712.75
2022-09-23T04:46:01.213Z,96742.53
2022-09-23T04:48:30.550Z,96758.66
2022-09-23T04:51:04.625Z,96757.25
2022-09-23T04:53:33.631Z,96753.94
2022-09-23T04:56:09.490Z,96733.19
2022-09-23T04:58:38.084Z,96709.47
2022-09-23T05:01:11.457Z,96735.47
2022-09-23T05:03:40.844Z,96739.00
2022-09-23T05:06:11.021Z,96760.59
2022-09-23T05:08:39.204Z,96706.91
2022-09-23T05:11:08.995Z,96755.31
2022-09-23T05:13:37.783Z,96783.53
2022-09-23T05:16:08.817Z,96760.19
2022-09-23T05:18:42.708Z,96749.16
2022-09-23T05:21:12.220Z,96765.88
2022-09-23T05:23:41.564Z,96742.84
2022-09-23T05:26:13.759Z,96737.81
2022-09-23T05:28:42.193Z,96749.16
2022-09-23T05:31:19.315Z,96776.22
2022-09-23T05:33:51.812Z,96610.72
2022-09-23T05:36:21.255Z,96781.69
2022-09-23T05:38:50.854Z,96782.97
2022-09-23T05:41:22.940Z,96736.66
2022-09-23T05:43:51.849Z,96740.59
2022-09-23T05:46:23.201Z,96742.66
2022-09-23T05:48:52.505Z,96768.94
2022-09-23T05:51:25.458Z,96757.28
2022-09-23T05:53:58.186Z,96660.34
2022-09-23T05:56:30.160Z,96661.59
2022-09-23T05:59:04.981Z,96732.00
2022-09-23T06:01:41.951Z,96765.97
2022-09-23T06:04:15.166Z,96738.72
2022-09-23T06:06:44.595Z,96748.69
2022-09-23T06:09:14.929Z,96748.72
2022-09-23T06:11:44.420Z,96774.09
2022-09-23T06:14:14.963Z,96661.34
2022-09-23T06:16:43.865Z,96758.81
2022-09-23T06:19:12.200Z,96750.34
2022-09-23T06:21:41.489Z,96763.84
2022-09-23T06:24:15.247Z,96733.91
2022-09-23T06:26:49.096Z,96741.38
2022-09-23T06:29:18.199Z,96724.56
2022-09-23T06:31:46.541Z,96765.88
2022-09-23T06:34:15.284Z,96763.81
2022-09-23T06:36:46.170Z,96761.47
2022-09-23T06:39:16.249Z,96720.75
2022-09-23T06:41:45.435Z,96704.56
2022-09-23T06:44:15.808Z,96729.03
2022-09-23T06:46:44.552Z,96753.81
2022-09-23T06:49:13.322Z,96715.88
2022-09-23T06:51:42.201Z,96716.19
2022-09-23T06:54:11.076Z,96678.84
2022-09-23T06:56:39.997Z,96727.94
2022-09-23T06:59:10.978Z,96568.38
2022-09-23T07:01:40.675Z,96760.72
2022-09-23T07:04:10.105Z,96749.84
2022-09-23T07:06:38.409Z,96775.88
2022-09-23T07:09:08.096Z,96736.97
2022-09-23T07:11:37.755Z,96691.75
2022-09-23T07:14:06.635Z,96732.75
2022-09-23T07:16:34.776Z,96704.41
2022-09-23T07:19:04.344Z,96739.31
2022-09-23T07:21:32.620Z,96724.25
2022-09-23T07:24:00.977Z,96759.16
2022-09-23T07:26:29.509Z,96720.06
2022-09-23T07:29:04.929Z,96746.97
2022-09-23T07:31:39.608Z,96741.69
2022-09-23T07:34:11.532Z,96749.78
2022-09-23T07:36:41.479Z,96762.81
2022-09-23T07:39:12.255Z,96678.97
2022-09-23T07:41:41.570Z,96690.47
2022-09-23T07:44:11.741Z,96724.72
2022-09-23T07:46:40.239Z,96682.69
2022-09-23T07:49:10.551Z,96739.16
2022-09-23T07:51:41.083Z,96714.38
2022-09-23T07:54:13.003Z,96700.50
2022-09-23T07:56:42.791Z,96639.66
2022-09-23T07:59:15.374Z,96734.09
2022-09-23T08:01:50.183Z,96735.94
2022-09-23T08:04:24.675Z,96704.06
2022-09-23T08:06:55.834Z,96732.69
2022-09-23T08:09:27.301Z,96707.19
2022-09-23T08:11:55.976Z,96743.19
2022-09-23T08:14:24.222Z,96683.59
2022-09-23T08:16:52.873Z,96751.66
2022-09-23T08:19:23.391Z,96703.25
2022-09-23T08:21:52.187Z,96687.47
2022-09-23T08:24:23.645Z,96720.50
2022-09-23T08:26:53.879Z,96666.34
2022-09-23T08:29:25.011Z,96747.22
2022-09-23T08:31:54.415Z,96701.19
2022-09-23T08:34:24.597Z,96683.81
2022-09-23T08:36:53.271Z,96647.09
2022-09-23T08:39:23.081Z,96666.38
2022-09-23T08:42:17.453Z,96746.88
2022-09-23T08:44:50.824Z,96690.50
2022-09-23T08:47:24.500Z,96713.03
2022-09-23T08:50:01.761Z,96622.41
2022-09-23T08:52:36.422Z,96718.56
2022-09-23T08:55:06.164Z,96691.91
2022-09-23T08:58:02.385Z,96701.09
2022-09-23T09:00:46.160Z,96694.56
2022-09-23T09:03:22.529Z,96669.94
2022-09-23T09:05:54.751Z,96659.22
2022-09-23T09:08:31.263Z,96709.53
2022-09-23T09:11:00.827Z,96731.16
2022-09-23T09:13:33.854Z,96673.00
2022-09-23T09:16:36.589Z,96720.25
2022-09-23T09:19:20.439Z,96717.44
2022-09-23T09:21:54.826Z,96697.22
2022-09-23T09:24:30.855Z,96702.06
2022-09-23T09:26:59.100Z,96683.25
2022-09-23T09:29:35.726Z,96670.16
2022-09-23T09:32:20.095Z,96646.34
2022-09-23T09:34:55.411Z,96676.16
2022-09-23T09:37:33.626Z,96710.63
2022-09-23T09:40:02.184Z,96663.63
2022-09-23T09:42:39.944Z,96673.94
2022-09-23T09:45:19.955Z,96673.81
2022-09-23T09:48:04.214Z,96665.34
2022-09-23T09:50:51.914Z,96657.25
2022-09-23T09:53:27.444Z,96640.66
2022-09-23T09:56:05.227Z,96648.53
2022-09-23T09:58:43.760Z,96663.50
2022-09-23T10:01:25.410Z,96592.88
2022-09-23T10:03:59.245Z,96648.41
2022-09-23T10:06:30.379Z,96576.34
2022-09-23T10:09:16.984Z,96560.97
2022-09-23T10:12:11.250Z,96674.38
2022-09-23T10:14:39.684Z,96637.97
2022-09-23T10:17:16.600Z,96641.84
2022-09-23T10:19:49.347Z,96604.63
2022-09-23T10:22:22.913Z,96626.53
2022-09-23T10:24:55.082Z,96580.72
2022-09-23T10:27:31.802Z,96644.16
2022-09-23T10:30:03.537Z,96578.47
2022-09-23T10:32:36.301Z,96629.84
2022-09-23T10:35:15.677Z,96602.59
2022-09-23T10:37:48.388Z,96624.53
2022-09-23T10:40:40.126Z,96597.50
2022-09-23T10:43:47.188Z,96593.38
2022-09-23T10:46:39.559Z,96656.84
2022-09-23T10:50:01.185Z,96620.41
2022-09-23T10:52:45.594Z,96610.97
2022-09-23T10:55:31.113Z,96646.34
2022-09-23T10:58:20.675Z,96622.97
2022-09-23T11:01:06.137Z,96583.19
2022-09-23T11:04:16.493Z,96619.06
2022-09-23T11:07:03.082Z,96600.13
2022-09-23T11:09:44.516Z,96565.13
2022-09-23T11:12:27.289Z,96599.91
2022-09-23T11:15:24.782Z,96590.38
2022-09-23T11:18:13.594Z,96568.88
2022-09-23T11:20:50.098Z,96620.09
2022-09-23T11:23:42.688Z,96524.09
2022-09-23T11:26:32.758Z,96596.91
2022-09-23T11:29:55.562Z,96572.69
2022-09-23T11:32:51.408Z,96606.06
2022-09-23T11:35:23.467Z,96538.53
2022-09-23T11:37:56.600Z,96558.50
2022-09-23T11:40:32.022Z,96521.25
2022-09-23T11:43:07.315Z,96439.44
2022-09-23T11:45:43.610Z,96556.72
2022-09-23T11:48:18.311Z,96557.00
2022-09-23T11:50:51.810Z,96517.47
2022-09-23T11:53:24.631Z,96545.50
2022-09-23T11:55:59.041Z,96509.00
2022-09-23T11:58:30.938Z,96522.66
2022-09-23T12:01:06.775Z,96527.31
2022-09-23T12:03:50.269Z,96508.16
2022-09-23T12:06:22.847Z,96494.38
2022-09-23T12:08:58.921Z,96534.47
2022-09-23T12:11:38.914Z,96576.75
2022-09-23T12:14:21.507Z,96549.84
2022-09-23T12:17:11.200Z,96494.28
2022-09-23T12:20:09.435Z,96528.03
2022-09-23T12:22:54.235Z,96533.63
2022-09-23T12:25:38.686Z,96495.72
2022-09-23T12:28:13.556Z,96466.41
2022-09-23T12:30:43.132Z,96528.31
2022-09-23T12:33:24.696Z,96469.56
2022-09-23T12:35:54.873Z,96539.88
2022-09-23T12:38:27.352Z,96511.81
2022-09-23T12:40:57.138Z,96486.38
2022-09-23T12:43:34.466Z,96481.59
2022-09-23T12:46:21.300Z,96463.00
2022-09-23T12:49:01.977Z,96516.00
2022-09-23T12:51:31.336Z,96461.47
2022-09-23T12:54:27.743Z,96464.78
2022-09-23T12:57:07.449Z,96427.91
2022-09-23T12:59:58.724Z,96472.47
2022-09-23T13:02:35.301Z,96470.13
2022-09-23T13:05:38.295Z,96480.19
2022-09-23T13:08:17.175Z,96438.47
2022-09-23T13:10:49.713Z,96474.91
2022-09-23T13:13:25.151Z,96467.44
2022-09-23T13:15:54.996Z,96493.13
2022-09-23T13:19:00.630Z,96478.66
2022-09-23T13:22:06.680Z,96473.53
2022-09-23T13:24:55.694Z,96422.53
2022-09-23T13:27:28.982Z,96456.00
2022-09-23T13:30:02.219Z,96428.94
2022-09-23T13:32:34.462Z,96441.94
2022-09-23T13:35:06.059Z,96478.56
2022-09-23T13:37:45.410Z,96447.66
2022-09-23T13:40:24.703Z,96318.81
2022-09-23T13:42:58.597Z,96445.75
2022-09-23T13:45:30.853Z,96384.31
2022-09-23T13:48:05.939Z,96432.63
2022-09-23T13:50:36.601Z,96463.38
2022-09-23T13:53:12.095Z,96443.69
2022-09-23T13:55:41.408Z,96465.28
2022-09-23T13:58:20.382Z,96455.13
2022-09-23T14:00:49.787Z,96469.81
2022-09-23T14:03:23.154Z,96447.00
2022-09-23T14:05:52.624Z,96423.53
2022-09-23T14:08:24.863Z,96466.09
2022-09-23T14:10:53.577Z,96440.78
2022-09-23T14:13:26.163Z,96410.97
2022-09-23T14:15:58.230Z,96451.34
2022-09-23T14:18:35.063Z,96406.94
2022-09-23T14:21:03.708Z,96362.00
2022-09-23T14:23:33.394Z,96374.00
2022-09-23T14:26:03.629Z,96444.97
2022-09-23T14:28:32.049Z,96439.72
2022-09-23T14:31:00.727Z,96429.84
2022-09-23T14:33:33.654Z,96376.66
2022-09-23T14:36:16.874Z,96406.16
2022-09-23T14:38:51.378Z,96396.09
2022-09-23T14:41:25.820Z,96432.56
2022-09-23T14:43:58.441Z,96366.78
2022-09-23T14:46:28.863Z,96386.78
2022-09-23T14:49:06.547Z,96408.81
2022-09-23T14:51:45.926Z,96407.78
2022-09-23T14:54:43.729Z,96407.63
2022-09-23T14:57:28.370Z,96428.56
2022-09-23T15:00:02.380Z,96378.91
2022-09-23T15:02:35.359Z,96405.72
2022-09-23T15:05:20.319Z,96448.09
2022-09-23T15:07:53.636Z,96323.47
2022-09-23T15:10:27.749Z,96387.25
2022-09-23T15:13:04.138Z,96363.72
2022-09-23T15:15:32.488Z,96358.81
2022-09-23T15:18:06.310Z,96384.94
2022-09-23T15:20:35.350Z,96424.75
2022-09-23T15:23:03.849Z,96403.75
2022-09-23T15:25:36.641Z,96404.66
2022-09-23T15:28:19.454Z,96364.56
2022-09-23T15:30:47.853Z,96368.56
2022-09-23T15:33:16.170Z,96380.22
2022-09-23T15:35:48.419Z,96386.06
2022-09-23T15:38:17.529Z,96389.69
2022-09-23T15:40:47.437Z,96326.63
2022-09-23T15:43:20.944Z,96385.16
2022-09-23T15:45:53.120Z,96350.94
2022-09-23T15:48:24.767Z,96354.31
2022-09-23T15:50:54.610Z,96296.44
2022-09-23T15:53:25.746Z,96333.03
2022-09-23T15:55:55.711Z,96377.44
2022-09-23T15:58:26.080Z,96368.97
2022-09-23T16:00:57.327Z,96398.00
2022-09-23T16:03:28.795Z,96325.34
2022-09-23T16:06:24.245Z,96347.13
2022-09-23T16:08:53.110Z,96356.13
2022-09-23T16:11:25.774Z,96251.06
2022-09-23T16:13:54.601Z,96361.19
2022-09-23T16:16:22.849Z,96385.22
2022-09-23T16:18:51.563Z,96341.47
2022-09-23T16:21:22.351Z,96363.00
2022-09-23T16:23:53.306Z,96348.25
2022-09-23T16:26:26.860Z,96393.59
2022-09-23T16:28:57.337Z,96406.34
2022-09-23T16:31:29.630Z,96413.81
2022-09-23T16:33:58.828Z,96374.47
2022-09-23T16:36:31.083Z,96391.66
2022-09-23T16:39:00.718Z,96325.09
2022-09-23T16:41:32.360Z,96362.81
2022-09-23T16:44:02.207Z,96377.19
2022-09-23T16:46:31.664Z,96403.47
2022-09-23T16:49:00.805Z,96394.00
2022-09-23T16:51:31.629Z,96371.13
2022-09-23T16:54:00.692Z,96413.97
2022-09-23T16:56:32.018Z,96396.41
2022-09-23T16:59:00.459Z,96388.47
2022-09-23T17:01:47.895Z,96411.59
2022-09-23T17:04:20.401Z,96415.19
2022-09-23T17:06:50.584Z,96371.31
2022-09-23T17:09:20.920Z,96388.19
2022-09-23T17:11:59.185Z,96422.50
2022-09-23T17:14:27.946Z,96380.81
2022-09-23T17:16:56.352Z,96396.63
2022-09-23T17:19:25.073Z,96384.75
2022-09-23T17:21:54.602Z,96375.53
2022-09-23T17:24:22.944Z,96433.88
2022-09-23T17:26:53.425Z,96393.41
2022-09-23T17:29:21.961Z,96396.69
2022-09-23T17:31:50.612Z,96369.31
2022-09-23T17:34:19.605Z,96342.75
2022-09-23T17:36:47.775Z,96333.31
2022-09-23T17:39:16.687Z,96423.03
2022-09-23T17:41:45.387Z,96429.53
2022-09-23T17:44:16.080Z,96396.81
2022-09-23T17:46:44.282Z,96412.16
2022-09-23T17:49:12.532Z,96396.81
2022-09-23T17:51:41.409Z,96388.81
2022-09-23T17:54:10.123Z,96411.91
2022-09-23T17:56:38.211Z,96367.34
2022-09-23T17:59:06.460Z,96405.75
2022-09-23T18:01:36.189Z,96412.63
2022-09-23T18:04:05.637Z,96371.41
2022-09-23T18:06:38.901Z,96271.38
2022-09-23T18:09:10.037Z,96439.72
2022-09-23T18:11:41.023Z,96359.31
2022-09-23T18:14:15.277Z,96367.91
2022-09-23T18:16:47.330Z,96284.81
2022-09-23T18:19:18.155Z,96421.56
2022-09-23T18:21:50.446Z,96384.38
2022-09-23T18:24:35.478Z,96379.06
2022-09-23T18:27:03.776Z,96346.88
2022-09-23T18:29:31.991Z,96348.81
2022-09-23T18:32:01.986Z,96389.50
2022-09-23T18:34:30.263Z,96438.44
2022-09-23T18:36:58.537Z,96424.50
2022-09-23T18:39:26.998Z,96416.09
2022-09-23T18:41:55.507Z,96351.09
2022-09-23T18:44:24.273Z,96371.28
2022-09-23T18:46:52.454Z,96415.44
2022-09-23T18:49:39.876Z,96396.03
2022-09-23T18:52:08.099Z,96357.03
2022-09-23T18:54:36.402Z,96414.81
2022-09-23T18:57:04.892Z,96405.50
2022-09-23T18:59:33.482Z,96450.09
2022-09-23T19:02:01.807Z,96371.59
2022-09-23T19:04:31.696Z,96407.88
2022-09-23T19:07:00.235Z,96378.47
2022-09-23T19:09:28.490Z,96371.88
2022-09-23T19:11:57.490Z,96397.88
2022-09-23T19:14:26.448Z,96406.63
2022-09-23T19:16:54.734Z,96387.84
2022-09-23T19:19:22.937Z,96352.22
2022-09-23T19:21:52.667Z,96367.19
2022-09-23T19:24:21.019Z,96358.09
2022-09-23T19:26:50.246Z,96406.16
2022-09-23T19:29:21.732Z,96333.78
2022-09-23T19:31:51.092Z,96432.91
2022-09-23T19:34:23.735Z,96357.81
2022-09-23T19:36:55.909Z,96429.47
2022-09-23T19:39:26.282Z,96376.47
2022-09-23T19:41:55.624Z,96392.53
2022-09-23T19:44:25.133Z,96391.19
2022-09-23T19:46:56.780Z,96393.44
2022-09-23T19:49:26.075Z,96427.88
2022-09-23T19:51:56.556Z,96468.28
2022-09-23T19:54:27.329Z,96405.31
2022-09-23T19:56:55.921Z,96409.50
2022-09-23T19:59:26.247Z,96370.06
2022-09-23T20:01:54.649Z,96442.41
2022-09-23T20:04:26.239Z,96365.97
2022-09-23T20:07:12.707Z,96405.69
2022-09-23T20:09:40.997Z,96409.06
2022-09-23T20:12:09.548Z,96357.59
2022-09-23T20:14:37.857Z,96363.91
2022-09-23T20:17:07.593Z,96394.97
2022-09-23T20:19:35.807Z,96363.63
2022-09-23T20:22:21.788Z,96386.22
2022-09-23T20:24:51.443Z,96363.19
2022-09-23T20:27:18.671Z,96367.28
2022-09-23T20:29:48.292Z,96306.44
2022-09-23T20:32:16.605Z,96369.75
2022-09-23T20:34:46.529Z,96418.00
2022-09-23T20:37:17.404Z,96299.88
2022-09-23T20:39:46.392Z,96377.94
2022-09-23T20:42:16.975Z,96373.47
2022-09-23T20:44:46.085Z,96432.13
2022-09-23T20:47:16.050Z,96311.25
2022-09-23T20:49:46.235Z,96325.31
2022-09-23T20:52:16.527Z,96378.69
2022-09-23T20:54:45.550Z,96377.03
2022-09-23T20:57:16.221Z,96386.66
2022-09-23T20:59:44.522Z,96390.50
2022-09-23T21:02:12.783Z,96378.91
2022-09-23T21:04:41.001Z,96355.97
2022-09-23T21:07:09.162Z,96366.50
2022-09-23T21:09:37.352Z,96346.66
2022-09-23T21:12:06.083Z,96393.94
2022-09-23T21:14:35.613Z,96361.69
2022-09-23T21:17:03.777Z,96360.03
2022-09-23T21:19:32.268Z,96324.91
2022-09-23T21:22:00.797Z,96302.69
2022-09-23T21:27:18.127Z,96322.25
2022-09-23T21:29:47.704Z,96348.56
2022-09-23T21:32:15.886Z,96333.81
2022-09-23T21:34:44.102Z,96342.44
2022-09-23T21:37:12.486Z,96335.09
2022-09-23T21:39:40.753Z,96339.81
2022-09-23T21:42:09.649Z,96365.09
2022-09-23T21:44:38.337Z,96351.56
2022-09-23T21:47:07.996Z,96364.09
2022-09-23T21:49:36.709Z,96354.31
2022-09-23T21:52:04.898Z,96361.13
2022-09-23T21:54:33.066Z,96326.53
2022-09-23T21:57:01.660Z,96357.91
2022-09-23T21:59:30.706Z,96322.50
2022-09-23T22:01:59.218Z,96350.00
2022-09-23T22:04:29.056Z,96327.78
2022-09-23T22:07:00.072Z,96374.06
2022-09-23T22:09:28.592Z,96330.94
2022-09-23T22:12:09.742Z,96333.34
2022-09-23T22:14:39.035Z,96233.53
2022-09-23T22:17:10.311Z,96319.00
2022-09-23T22:19:45.994Z,96297.84
2022-09-23T22:22:18.386Z,96292.41
2022-09-23T22:24:48.452Z,96311.75
2022-09-23T22:27:19.831Z,96290.53
2022-09-23T22:30:06.092Z,96367.91
2022-09-23T22:32:43.359Z,96318.28
2022-09-23T22:35:16.554Z,96354.75
2022-09-23T22:37:45.457Z,96371.19
2022-09-23T22:40:16.342Z,96356.72
2022-09-23T22:42:45.237Z,96354.97
2022-09-23T22:45:13.883Z,96309.63
2022-09-23T22:47:45.419Z,96250.28
2022-09-23T22:50:15.574Z,96370.06
2022-09-23T22:52:43.909Z,96372.19
2022-09-23T22:55:12.946Z,96362.72
2022-09-23T22:57:41.202Z,96352.59
2022-09-23T23:00:12.075Z,96382.81
2022-09-23T23:02:42.367Z,96379.91
2022-09-23T23:05:10.916Z,96368.81
2022-09-23T23:07:40.580Z,96395.72
2022-09-23T23:10:10.424Z,96360.59
2022-09-23T23:12:39.046Z,96332.19
2022-09-23T23:15:12.323Z,96313.09
2022-09-23T23:17:43.493Z,96353.53
2022-09-23T23:20:11.962Z,96369.38
2022-09-23T23:22:41.497Z,96340.91
2022-09-23T23:25:10.683Z,96332.47
2022-09-23T23:27:39.219Z,96344.81
2022-09-23T23:30:09.496Z,96282.16
2022-09-23T23:32:37.723Z,96311.97
2022-09-23T23:35:07.160Z,96345.69
2022-09-23T23:37:35.316Z,96364.41
2022-09-23T23:40:05.514Z,96332.22
2022-09-23T23:42:34.598Z,96354.88
2022-09-23T23:45:02.917Z,96234.00
2022-09-23T23:47:31.040Z,96326.22
2022-09-23T23:49:59.199Z,96301.38
2022-09-23T23:52:27.428Z,96342.13
2022-09-23T23:54:55.932Z,96343.78
2022-09-23T23:57:25.477Z,96296.53
2022-09-23T23:59:53.902Z,96322.31
